• Join FlightAware (Why Join?)
  • Login
  • US Flag 
10:25AM EDT


 

Airport Tracker/Info


-or-


 

Live Flight TrackerFlight Track Log ✈ DAL268 ✈ 03-Sep-2013 ✈ KJFK - LLBG / TLV

Flight Track Log - Related Links

Times and Time Zones

All times are in EDT time to prevent confusion due to time zone crossing. See the DAL268 flight status page for this flight to view local times or setup timezone preferences in your user account.

Time Position Orientation Groundspeed Altitude Reporting Facility
EDT Latitude Longitude Course Direction KTS MPH feet Rate Location/Type
09:42PM 40.6200 -73.7820 270° West 80 92  Level FlightAware
09:42PM 40.6280 -73.7990 302° West 160 184 600 Level FlightAware
09:43PM 40.6360 -73.8180 299° West 177 204 500 1,500 Climbing FlightAware
09:43PM 40.6380 -73.8260 288° West 176 203 700 1,500 Climbing FlightAware
09:43PM 40.6390 -73.8350 278° West 179 206 900 1,500 Climbing FlightAware
09:43PM 40.6390 -73.8390 270° West 182 209 1,000 1,500 Climbing FlightAware
09:43PM 40.6370 -73.8480 254° West 189 217 1,200 1,500 Climbing FlightAware
09:43PM 40.6340 -73.8560 244° Southwest 193 222 1,400 1,500 Climbing FlightAware
09:44PM 40.6290 -73.8630 227° Southwest 193 222 1,600 1,500 Climbing FlightAware
09:44PM 40.6140 -73.8790 219° Southwest 204 235 2,100 1,260 Climbing FlightAware
09:44PM 40.6050 -73.8860 211° Southwest 208 239 2,300 1,200 Climbing FlightAware
09:44PM 40.5970 -73.8890 196° South 215 247 2,500 1,320 Climbing FlightAware
09:45PM 40.5740 -73.8800 163° South 225 259 3,100 1,260 Climbing FlightAware
09:45PM 40.5590 -73.8720 158° South 225 259 3,400 1,200 Climbing FlightAware
09:45PM 40.5450 -73.8630 154° Southeast 232 267 3,700 960 Climbing FlightAware
09:45PM 40.5380 -73.8540 136° Southeast 238 274 3,800 900 Climbing FlightAware
09:45PM 40.5330 -73.8410 117° Southeast 243 280 4,000 780 Climbing FlightAware
09:46PM 40.5310 -73.8320 106° East 248 285 4,000 780 Level FlightAware
09:46PM 40.5330 -73.7940 86° East 233 268 4,400 960 Climbing FlightAware
09:46PM 40.5360 -73.7520 85° East 278 320 4,800 900 Climbing FlightAware
09:47PM 40.5380 -73.7150 86° East 293 337 5,100 1,320 Climbing FlightAware
09:47PM 40.5390 -73.6800 88° East 304 350 5,700 1,860 Climbing FlightAware
09:47PM 40.5400 -73.6390 88° East 307 353 6,500 1,860 Climbing FlightAware
09:48PM 40.5400 -73.6210 90° East 310 357 6,800 1,860 Climbing FlightAware
09:48PM 40.5420 -73.5640 87° East 322 371 7,600 1,980 Climbing FlightAware
09:48PM 40.5430 -73.5260 88° East 327 376 8,300 1,920 Climbing FlightAware
09:49PM 40.5450 -73.4860 86° East 332 382 8,900 1,800 Climbing FlightAware
09:49PM 40.5460 -73.4470 88° East 336 387 9,500 1,560 Climbing FlightAware
09:50PM 40.5480 -73.3640 88° East 353 406 10,500 1,320 Climbing FlightAware
09:50PM 40.5490 -73.2980 89° East 375 432 11,100 1,080 Climbing FlightAware
09:51PM 40.5510 -73.2050 88° East 403 464 11,800 1,200 Climbing FlightAware
09:51PM 40.5520 -73.1240 89° East 422 486 12,500 1,620 Climbing FlightAware
09:52PM 40.5540 -73.0350 88° East 434 499 13,600 2,040 Climbing FlightAware
09:53PM 40.5750 -72.9300 75° East 443 510 15,100 2,100 Climbing FlightAware
09:53PM 40.5950 -72.8530 71° East 450 518 16,100 1,980 Climbing FlightAware
09:54PM 40.6200 -72.7610 70° East 459 528 17,300 1,860 Climbing FlightAware
09:54PM 40.6430 -72.6710 71° East 466 536 18,300 1,740 Climbing FlightAware
09:55PM 40.6710 -72.5600 72° East 475 547 19,500 1,680 Climbing FlightAware
09:55PM 40.6930 -72.4730 72° East 480 552 20,300 1,560 Climbing FlightAware
09:56PM 40.7170 -72.3770 72° East 489 563 21,200 1,440 Climbing FlightAware
09:57PM 40.7410 -72.2830 71° East 495 570 22,000 1,500 Climbing FlightAware
09:57PM 40.7690 -72.1720 72° East 502 578 23,000 1,320 Climbing FlightAware
09:58PM 40.7950 -72.0670 72° East 511 588 23,700 1,200 Climbing FlightAware
09:59PM 40.8330 -71.9120 72° East 519 597 24,800 1,320 Climbing FlightAware
09:59PM 40.8610 -71.7990 72° East 527 606 25,600 720 Climbing FlightAware
10:00PM 40.8920 -71.6760 72° East 527 606 25,900 720 Climbing FlightAware
10:01PM 40.9220 -71.5530 72° East 548 631 26,700 1,140 Climbing FlightAware
10:01PM 40.9590 -71.3990 72° East 559 643 27,400 960 Climbing FlightAware
10:02PM 40.9870 -71.2840 72° East 562 647 28,000 900 Climbing FlightAware
10:03PM 41.0300 -71.1050 72° East 569 655 28,800 1,020 Climbing FlightAware
10:04PM 41.0600 -70.9780 73° East 570 656 29,600 840 Climbing FlightAware
10:04PM 41.0980 -70.8140 73° East 569 655 30,100 300 Climbing FlightAware
10:05PM 41.1220 -70.7110 73° East 569 655 30,100  Level FlightAware
10:06PM 41.1450 -70.6090 73° East 569 655 30,100  Level FlightAware
10:06PM 41.1690 -70.5070 73° East 569 655 30,100  Level FlightAware
10:07PM 41.1920 -70.4040 73° East 569 655 30,100 1,320 Level FlightAware
10:07PM 41.2350 -70.2210 73° East 33,000 1,800 Climbing FlightAware
10:08PM 41.3020 -70.0100 67° East 666 766 33,000  Level FlightAware
10:11PM 41.5360 -69.7080 44° Northeast 562 647 33,000 60 Level FlightAware
10:11PM 41.6360 -69.5800 44° Northeast 563 648 33,200 120 Climbing FlightAware
10:12PM 41.6930 -69.5060 44° Northeast 563 648 33,200 600 Level FlightAware
10:13PM 41.7750 -69.4020 43° Northeast 563 648 34,000 1,260 Climbing FlightAware
10:13PM 41.8660 -69.2850 44° Northeast 563 648 35,000 660 Climbing FlightAware
10:14PM 41.9600 -69.1630 44° Northeast 567 652 35,000  Level FlightAware
10:15PM 42.0270 -69.0760 44° Northeast 565 650 35,000  Level FlightAware
10:15PM 42.0910 -68.9920 44° Northeast 565 650 35,000  Level FlightAware
10:16PM 42.1660 -68.8960 43° Northeast 566 651 35,000  Level FlightAware
10:17PM 42.2330 -68.8070 45° Northeast 563 648 35,000  Level FlightAware
10:17PM 42.2850 -68.7390 44° Northeast 564 649 35,000  Level FlightAware
10:18PM 42.3830 -68.6110 44° Northeast 565 650 35,000  Level FlightAware
10:19PM 42.4670 -68.5000 44° Northeast 565 650 35,000  Level FlightAware
10:19PM 42.5240 -68.4250 44° Northeast 565 650 35,000  Level FlightAware
10:20PM 42.5830 -68.3470 44° Northeast 565 650 35,000  Level FlightAware
10:21PM 42.6410 -68.2720 44° Northeast 565 650 35,000  Level FlightAware
10:21PM 42.6980 -68.1960 44° Northeast 565 650 35,000  Level FlightAware
10:22PM 42.7560 -68.1200 44° Northeast 565 650 35,000  Level FlightAware
10:22PM 42.8140 -68.0450 43° Northeast 565 650 35,000  Level FlightAware
10:23PM 42.8710 -67.9690 44° Northeast 565 650 35,000  Level FlightAware
10:24PM 43.0060 -67.7710 47° Northeast 556 640 35,000  Level FlightAware
10:25PM 43.1000 -67.6430 45° Northeast 557 641 35,000  Level FlightAware
10:25PM 43.1770 -67.5370 45° Northeast 566 651 35,000  Level FlightAware
10:26PM 43.2410 -67.4490 45° Northeast 567 652 35,000  Level FlightAware
10:26PM 43.3060 -67.3590 45° Northeast 567 652 35,000  Level FlightAware
10:27PM 43.3700 -67.2710 45° Northeast 569 655 35,000  Level FlightAware
10:27PM 43.4360 -67.1780 46° Northeast 570 656 35,000  Level FlightAware
10:28PM 43.4990 -67.0900 45° Northeast 566 651 35,000  Level FlightAware
10:29PM 43.5610 -66.9930 49° Northeast 567 652 35,000  Level FlightAware
10:29PM 43.6180 -66.8880 53° Northeast 573 659 35,000  Level FlightAware
10:30PM 43.6800 -66.7700 54° Northeast 569 655 35,000  Level FlightAware
10:30PM 43.7270 -66.6800 54° Northeast 567 652 35,000  Level FlightAware
10:31PM 43.7800 -66.5770 54° Northeast 566 651 35,000  Level FlightAware
10:32PM 43.8340 -66.4710 55° Northeast 565 650 35,000  Level FlightAware
10:32PM 43.8940 -66.3550 54° Northeast 564 649 35,000  Level FlightAware
10:33PM 43.9400 -66.2650 55° Northeast 564 649 35,000  Level FlightAware
10:33PM 43.9930 -66.1630 54° Northeast 565 650 35,000  Level FlightAware
10:34PM 44.0470 -66.0560 55° Northeast 563 648 35,000  Level FlightAware
10:34PM 44.1000 -65.9520 55° Northeast 567 652 35,000  Level FlightAware
10:35PM 44.1600 -65.8330 55° Northeast 566 651 35,000  Level FlightAware
10:36PM 44.2200 -65.7140 55° Northeast 564 649 35,000  Level FlightAware
10:36PM 44.2750 -65.6040 55° Northeast 563 648 35,000  Level FlightAware
10:37PM 44.3320 -65.4910 55° Northeast 562 647 35,000  Level FlightAware
10:38PM 44.3870 -65.3810 55° Northeast 562 647 35,000  Level FlightAware
10:38PM 44.4380 -65.2790 55° Northeast 562 647 35,000  Level FlightAware
10:39PM 44.4880 -65.1770 55° Northeast 562 647 35,000  Level FlightAware
10:39PM 44.5410 -65.0690 55° Northeast 563 648 35,000  Level FlightAware
10:40PM 44.5940 -64.9630 55° Northeast 563 648 35,000  Level FlightAware
10:41PM 44.6510 -64.8460 56° Northeast 556 640 35,000  Level FlightAware
10:41PM 44.7040 -64.7380 55° Northeast 555 639 35,000  Level FlightAware
10:42PM 44.7560 -64.6300 56° Northeast 561 646 35,000  Level FlightAware
10:42PM 44.8120 -64.5160 55° Northeast 561 646 35,000  Level FlightAware
10:43PM 44.8580 -64.4200 56° Northeast 563 648 35,000  Level FlightAware
10:44PM 44.9070 -64.3190 56° Northeast 563 648 35,000  Level FlightAware
10:44PM 44.9630 -64.2040 55° Northeast 564 649 35,000  Level FlightAware
10:45PM 45.0320 -64.0600 56° Northeast 564 649 35,000  Level FlightAware
10:46PM 45.0850 -63.9500 56° Northeast 564 649 35,000  Level FlightAware
10:46PM 45.1420 -63.8280 56° Northeast 563 648 35,000  Level FlightAware
10:47PM 45.1860 -63.7360 56° Northeast 562 647 35,000  Level FlightAware
10:47PM 45.2370 -63.6280 56° Northeast 561 646 35,000  Level FlightAware
10:48PM 45.2870 -63.5220 56° Northeast 561 646 35,000  Level FlightAware
10:48PM 45.3370 -63.4150 56° Northeast 560 644 35,000  Level FlightAware
10:49PM 45.3870 -63.3080 56° Northeast 559 643 35,000  Level FlightAware
10:50PM 45.4370 -63.2000 57° Northeast 558 642 35,000  Level FlightAware
10:50PM 45.4860 -63.0950 56° Northeast 558 642 35,000  Level FlightAware
10:51PM 45.5620 -62.9270 57° Northeast 558 642 35,000  Level FlightAware
10:52PM 45.6050 -62.8320 57° Northeast 558 642 35,000  Level FlightAware
10:52PM 45.6480 -62.7370 57° Northeast 558 642 35,000  Level FlightAware
10:53PM 45.6910 -62.6420 57° Northeast 558 642 35,000  Level FlightAware
10:54PM 45.7360 -62.5450 56° Northeast 558 642 35,000  Level FlightAware
10:54PM 45.7800 -62.4470 57° Northeast 558 642 35,000  Level FlightAware
10:55PM 45.8230 -62.3520 57° Northeast 558 642 35,000  Level FlightAware
10:55PM 45.8660 -62.2570 57° Northeast 558 642 35,000  Level FlightAware
10:56PM 45.9690 -62.0290 57° Northeast 555 639 35,000  Level FlightAware
10:57PM 46.0210 -61.9110 58° Northeast 554 638 35,000  Level FlightAware
10:57PM 46.0660 -61.8100 57° Northeast 554 638 35,000  Level FlightAware
10:58PM 46.1180 -61.6920 58° Northeast 552 635 35,000  Level FlightAware
10:58PM 46.1680 -61.5800 57° Northeast 552 635 35,000  Level FlightAware
10:59PM 46.2170 -61.4660 58° Northeast 553 636 35,000  Level FlightAware
10:59PM 46.2610 -61.3660 58° Northeast 552 635 35,000  Level FlightAware
11:00PM 46.3090 -61.2550 58° Northeast 553 636 35,000  Level FlightAware
11:01PM 46.3580 -61.1410 58° Northeast 553 636 35,000  Level FlightAware
11:01PM 46.4020 -61.0410 57° Northeast 553 636 35,000  Level FlightAware
11:02PM 46.4500 -60.9270 59° Northeast 553 636 35,000  Level FlightAware
11:02PM 46.4970 -60.8160 58° Northeast 553 636 35,000  Level FlightAware
11:03PM 46.5430 -60.7070 58° Northeast 553 636 35,000  Level FlightAware
11:04PM 46.5920 -60.5920 58° Northeast 552 635 35,000  Level FlightAware
11:04PM 46.6390 -60.4800 59° Northeast 553 636 35,000  Level FlightAware
11:05PM 46.6880 -60.3620 59° Northeast 553 636 35,000  Level FlightAware
11:05PM 46.7310 -60.2610 58° Northeast 553 636 35,000  Level FlightAware
11:06PM 46.7770 -60.1490 59° Northeast 552 635 35,000  Level FlightAware
11:06PM 46.8200 -60.0450 59° Northeast 551 634 35,000  Level FlightAware
11:07PM 46.8670 -59.9320 59° Northeast 549 632 35,000  Level FlightAware
11:08PM 46.9140 -59.8190 59° Northeast 549 632 35,000  Level FlightAware
11:08PM 46.9650 -59.6970 58° Northeast 548 631 35,000  Level FlightAware
11:09PM 47.0060 -59.5950 59° Northeast 547 629 35,000  Level FlightAware
11:09PM 47.0530 -59.4800 59° Northeast 546 628 35,000  Level FlightAware
11:10PM 47.0990 -59.3660 59° Northeast 545 627 35,000  Level FlightAware
11:11PM 47.1640 -59.2060 59° Northeast 546 628 35,000  Level FlightAware
11:11PM 47.2040 -59.1050 60° Northeast 546 628 35,000  Level FlightAware
11:12PM 47.2470 -58.9990 59° Northeast 547 629 35,000  Level FlightAware
11:13PM 47.2920 -58.8860 60° Northeast 548 631 35,000  Level FlightAware
11:13PM 47.3360 -58.7740 60° Northeast 549 632 35,000  Level FlightAware
11:14PM 47.3830 -58.6550 60° Northeast 549 632 35,000  Level FlightAware
11:14PM 47.4230 -58.5560 59° Northeast 550 633 35,000  Level FlightAware
11:15PM 47.4830 -58.4010 60° Northeast 551 634 35,000  Level FlightAware
11:16PM 47.5290 -58.2850 60° Northeast 551 634 35,000  Level FlightAware
11:16PM 47.5660 -58.1900 60° Northeast 550 633 35,000  Level FlightAware
11:17PM 47.6170 -58.0590 60° Northeast 550 633 35,000  Level FlightAware
11:17PM 47.6590 -57.9480 61° Northeast 548 631 35,000  Level FlightAware
11:18PM 47.7040 -57.8320 60° Northeast 547 629 35,000  Level FlightAware
11:19PM 47.7500 -57.7120 60° Northeast 546 628 35,000  Level FlightAware
11:19PM 47.7980 -57.5850 61° Northeast 545 627 35,000  Level FlightAware
11:20PM 47.8410 -57.4610 63° Northeast 545 627 35,000  Level FlightAware
11:21PM 47.8890 -57.3140 64° Northeast 547 629 35,000  Level FlightAware
11:21PM 47.9220 -57.2130 64° Northeast 547 629 35,000  Level FlightAware
11:22PM 47.9610 -57.0950 64° Northeast 548 631 35,000  Level FlightAware
11:22PM 48.0070 -56.9580 63° Northeast 550 633 35,000  Level FlightAware
11:23PM 48.0370 -56.8660 64° Northeast 552 635 35,000  Level FlightAware
11:23PM 48.0850 -56.7200 64° Northeast 551 634 35,000  Level FlightAware
11:24PM 48.1200 -56.6130 64° Northeast 551 634 35,000  Level FlightAware
11:25PM 48.1560 -56.5020 64° Northeast 551 634 35,000  Level FlightAware
11:25PM 48.2010 -56.3590 65° Northeast 550 633 35,000  Level FlightAware
11:26PM 48.2390 -56.2400 64° Northeast 549 632 35,000  Level FlightAware
11:26PM 48.2720 -56.1380 64° Northeast 548 631 35,000  Level FlightAware
11:27PM 48.3100 -56.0150 65° Northeast 546 628 35,000  Level FlightAware
11:28PM 48.3530 -55.8800 64° Northeast 545 627 35,000  Level FlightAware
11:28PM 48.3900 -55.7600 65° Northeast 544 626 35,000  Level FlightAware
11:29PM 48.4220 -55.6560 65° Northeast 544 626 35,000  Level FlightAware
11:29PM 48.4650 -55.5200 64° Northeast 544 626 35,000  Level FlightAware
11:30PM 48.4950 -55.4220 65° Northeast 543 625 35,000  Level FlightAware
11:30PM 48.5390 -55.2780 65° Northeast 545 627 35,000  Level FlightAware
11:31PM 48.5710 -55.1750 65° Northeast 545 627 35,000  Level FlightAware
11:32PM 48.6130 -55.0380 65° Northeast 546 628 35,000  Level FlightAware
11:32PM 48.6500 -54.9140 66° East 546 628 35,000  Level FlightAware
11:33PM 48.6810 -54.8140 65° Northeast 546 628 35,000  Level FlightAware
11:33PM 48.7170 -54.6920 66° East 546 628 35,000  Level FlightAware
11:34PM 48.7600 -54.5500 65° Northeast 545 627 35,000  Level FlightAware
11:35PM 48.7960 -54.4280 66° East 545 627 35,000  Level FlightAware
11:35PM 48.8270 -54.3240 66° East 544 626 35,000  Level FlightAware
11:36PM 48.8680 -54.1870 65° Northeast 544 626 35,000  Level FlightAware
11:36PM 48.8990 -54.0820 66° East 543 625 35,000  Level FlightAware
11:37PM 48.9340 -53.9610 66° East 543 625 35,000  Level FlightAware
11:37PM 48.9750 -53.8190 66° East 543 625 35,000  Level FlightAware
11:38PM 49.0090 -53.6990 67° East 542 624 35,000  Level FlightAware
11:39PM 49.0390 -53.5900 67° East 543 625 35,000  Level FlightAware
11:39PM 49.0790 -53.4500 66° East 542 624 35,000  Level FlightAware
11:40PM 49.1130 -53.3320 66° East 541 623 35,000  Level FlightAware
11:40PM 49.1440 -53.2210 67° East 540 621 35,000  Level FlightAware
11:41PM 49.1820 -53.0840 67° East 540 621 35,000  Level FlightAware
11:42PM 49.2150 -52.9650 67° East 539 620 35,000  Level FlightAware
11:42PM 49.2450 -52.8560 67° East 538 619 35,000  Level FlightAware
11:43PM 49.2800 -52.7320 67° East 536 617 35,000  Level FlightAware
11:43PM 49.3180 -52.5920 67° East 536 617 35,000  Level FlightAware
11:44PM 49.3520 -52.4690 67° East 536 617 35,000  Level FlightAware
11:44PM 49.3770 -52.3760 68° East 535 616 35,000  Level FlightAware
11:45PM 49.4120 -52.2450 68° East 535 616 35,000  Level FlightAware
11:46PM 49.4490 -52.1070 68° East 535 616 35,000  Level FlightAware
11:46PM 49.4750 -52.0090 68° East 536 617 35,000  Level FlightAware
11:47PM 49.5120 -51.8700 68° East 534 615 35,000  Level FlightAware
11:47PM 49.5480 -51.7360 67° East 537 618 35,000  Level FlightAware
11:48PM 49.5790 -51.6160 68° East 536 617 35,000  Level FlightAware
11:49PM 49.6240 -51.4450 68° East 536 617 35,000  Level FlightAware
11:50PM 49.6670 -51.2800 68° East 536 617 35,000  Level FlightAware
11:50PM 49.6950 -51.1710 68° East 536 617 35,000  Level FlightAware
11:51PM 49.7240 -51.0630 67° East 536 617 35,000  Level FlightAware
11:51PM 49.7520 -50.9540 68° East 536 617 35,000  Level FlightAware
11:52PM 49.7810 -50.8450 68° East 536 617 35,000  Level FlightAware
11:53PM 49.8090 -50.7360 68° East 536 617 35,000  Level FlightAware
11:53PM 49.8380 -50.6270 68° East 536 617 35,000  Level FlightAware
11:54PM 49.9020 -50.3510 70° East 538 619 35,000  Level FlightAware
11:54PM 49.9310 -50.2320 69° East 538 619 35,000  Level FlightAware
11:55PM 49.9600 -50.1160 69° East 538 619 35,000  Level FlightAware
11:56PM 49.9870 -50.0050 69° East 538 619 35,000  Level FlightAware
11:56PM 50.0140 -49.8940 69° East 538 619 35,000  Level FlightAware
11:57PM 50.0420 -49.7840 68° East 538 619 35,000  Level FlightAware
11:57PM 50.0690 -49.6730 69° East 538 619 35,000  Level FlightAware
11:58PM 50.0960 -49.5620 69° East 538 619 35,000  Level FlightAware
11:59PM 50.1230 -49.4510 69° East 538 619 35,000  Level FlightAware
11:59PM 50.1510 -49.3400 68° East 538 619 35,000  Level FlightAware
12:00AM 50.1780 -49.2290 69° East 538 619 35,000  Level FlightAware
12:00AM 50.2060 -49.1150 69° East 538 619 35,000  Level FlightAware
12:01AM 50.2330 -49.0040 69° East 538 619 35,000  Level FlightAware
12:02AM 50.2610 -48.8900 69° East 538 619 35,000  Level FlightAware
12:02AM 50.0000 -50.0000 77° East 538 619 35,000  Level ETMS Enhanced Traffic Management System
12:02AM 50.2890 -48.7750 69° East 538 619 35,000  Level FlightAware
12:02AM 50.1667 -48.2833 77° East 550 633 35,000  Level Gander Center
12:03AM 50.3170 -48.6610 69° East 538 619 35,000  Level FlightAware
12:03AM 50.2000 -48.0667 76° East 550 633 35,000  Level Gander Center
12:03AM 50.3450 -48.5500 68° East 538 619 35,000  Level FlightAware
12:04AM 50.3720 -48.4380 69° East 538 619 35,000  Level FlightAware
12:04AM 50.2333 -47.8167 78° East 550 633 35,000  Level Gander Center
12:06AM 50.2728 -47.5653 76° East  Level FlightAware Approximate
12:13AM 50.5034 -46.0022 80° East  Level FlightAware Approximate
12:14AM 50.5280 -45.7758 80° East  Level FlightAware Approximate
12:15AM 50.5521 -45.5493 80° East  Level FlightAware Approximate
12:16AM 50.5757 -45.3225 81° East  Level FlightAware Approximate
12:17AM 50.5990 -45.0955 81° East  Level FlightAware Approximate
12:18AM 50.6218 -44.8683 81° East  Level FlightAware Approximate
12:19AM 50.6441 -44.6408 81° East  Level FlightAware Approximate
12:20AM 50.6660 -44.4132 81° East  Level FlightAware Approximate
12:21AM 50.6875 -44.1853 81° East  Level FlightAware Approximate
12:22AM 50.7085 -43.9572 82° East  Level FlightAware Approximate
12:23AM 50.7291 -43.7289 82° East  Level FlightAware Approximate
12:24AM 50.7492 -43.5004 82° East  Level FlightAware Approximate
12:25AM 50.7689 -43.2718 82° East  Level FlightAware Approximate
12:26AM 50.7881 -43.0429 82° East  Level FlightAware Approximate
12:27AM 50.8069 -42.8139 83° East  Level FlightAware Approximate
12:28AM 50.8252 -42.5846 83° East  Level FlightAware Approximate
12:29AM 50.8431 -42.3552 83° East  Level FlightAware Approximate
12:30AM 50.8605 -42.1256 83° East  Level FlightAware Approximate
12:31AM 50.8775 -41.8959 83° East  Level FlightAware Approximate
12:32AM 50.8940 -41.6660 83° East  Level FlightAware Approximate
12:33AM 50.9101 -41.4359 84° East  Level FlightAware Approximate
12:34AM 50.9257 -41.2057 84° East  Level FlightAware Approximate
12:35AM 50.9409 -40.9753 84° East  Level FlightAware Approximate
12:36AM 50.9556 -40.7447 84° East  Level FlightAware Approximate
12:37AM 50.9699 -40.5140 84° East  Level FlightAware Approximate
12:38AM 50.9837 -40.2832 84° East  Level FlightAware Approximate
12:39AM 50.9970 -40.0523 85° East  Level FlightAware Approximate
12:40AM 51.0075 -39.8209 86° East  Level FlightAware Approximate
12:41AM 51.0168 -39.5893 86° East  Level FlightAware Approximate
12:42AM 51.0257 -39.3577 86° East  Level FlightAware Approximate
12:42AM 51.0000 -40.0000 86° East 539 620 35,000  Level ETMS Enhanced Traffic Management System
12:43AM 51.0341 -39.1259 87° East  Level FlightAware Approximate
12:44AM 51.0421 -38.8941 87° East  Level FlightAware Approximate
12:45AM 51.0496 -38.6622 87° East  Level FlightAware Approximate
12:46AM 51.0566 -38.4302 87° East  Level FlightAware Approximate
12:47AM 51.0632 -38.1982 87° East  Level FlightAware Approximate
12:48AM 51.0775 -37.6220 88° East 539 620 35,000  Level FlightAware Transoceanic
12:49AM 51.0826 -37.3838 88° East 539 620 35,000  Level FlightAware Transoceanic
12:50AM 51.0872 -37.1455 88° East 539 620 35,000  Level FlightAware Transoceanic
12:51AM 51.0913 -36.9073 89° East 539 620 35,000  Level FlightAware Transoceanic
12:52AM 51.0949 -36.6689 89° East 539 620 35,000  Level FlightAware Transoceanic
12:53AM 51.0981 -36.4306 89° East 539 620 35,000  Level FlightAware Transoceanic
12:54AM 51.1007 -36.1922 89° East 539 620 35,000  Level FlightAware Transoceanic
12:55AM 51.1029 -35.9538 89° East 539 620 35,000  Level FlightAware Transoceanic
12:56AM 51.1046 -35.7154 89° East 539 620 35,000  Level FlightAware Transoceanic
12:57AM 51.1058 -35.4769 90° East 539 620 35,000  Level FlightAware Transoceanic
12:58AM 51.1065 -35.2385 90° East 539 620 35,000  Level FlightAware Transoceanic
12:59AM 51.1068 -35.0000 90° East 539 620 35,000  Level FlightAware Transoceanic
01:00AM 51.1065 -34.7615 90° East 539 620 35,000  Level FlightAware Transoceanic
01:01AM 51.1058 -34.5231 90° East 539 620 35,000  Level FlightAware Transoceanic
01:02AM 51.1046 -34.2846 91° East 539 620 35,000  Level FlightAware Transoceanic
01:03AM 51.1029 -34.0462 91° East 539 620 35,000  Level FlightAware Transoceanic
01:04AM 51.1007 -33.8078 91° East 539 620 35,000  Level FlightAware Transoceanic
01:05AM 51.0981 -33.5694 91° East 539 620 35,000  Level FlightAware Transoceanic
01:06AM 51.0949 -33.3311 91° East 539 620 35,000  Level FlightAware Transoceanic
01:07AM 51.0913 -33.0927 91° East 539 620 35,000  Level FlightAware Transoceanic
01:08AM 51.0872 -32.8545 92° East 539 620 35,000  Level FlightAware Transoceanic
01:09AM 51.0826 -32.6162 92° East 539 620 35,000  Level FlightAware Transoceanic
01:10AM 51.0775 -32.3780 92° East 539 620 35,000  Level FlightAware Transoceanic
01:11AM 51.0719 -32.1399 92° East 539 620 35,000  Level FlightAware Transoceanic
01:12AM 51.0658 -31.9018 92° East 539 620 35,000  Level FlightAware Transoceanic
01:13AM 51.0593 -31.6638 93° East 539 620 35,000  Level FlightAware Transoceanic
01:14AM 51.0523 -31.4259 93° East 539 620 35,000  Level FlightAware Transoceanic
01:15AM 51.0448 -31.1880 93° East 539 620 35,000  Level FlightAware Transoceanic
01:16AM 51.0368 -30.9502 93° East 539 620 35,000  Level FlightAware Transoceanic
01:17AM 51.0283 -30.7125 93° East 539 620 35,000  Level FlightAware Transoceanic
01:18AM 51.0193 -30.4749 94° East 539 620 35,000  Level FlightAware Transoceanic
01:19AM 51.0099 -30.2374 94° East 539 620 35,000  Level FlightAware Transoceanic
01:20AM 51.0003 -30.0059 94° East  Level FlightAware Approximate
01:21AM 50.9903 -29.7745 94° East  Level FlightAware Approximate
01:22AM 51.0310 -29.7854 77° East  Level FlightAware Approximate
01:23AM 51.0633 -29.5589 77° East  Level FlightAware Approximate
01:24AM 51.0951 -29.3321 77° East  Level FlightAware Approximate
01:24AM 51.0000 -30.0000 77° East 539 620 35,000  Level ETMS Enhanced Traffic Management System
01:25AM 51.1264 -29.1054 77° East  Level FlightAware Approximate
01:26AM 51.1573 -28.8784 78° East  Level FlightAware Approximate
01:27AM 51.1878 -28.6511 78° East  Level FlightAware Approximate
01:28AM 51.2178 -28.4235 78° East  Level FlightAware Approximate
01:29AM 51.2473 -28.1956 78° East  Level FlightAware Approximate
01:30AM 51.2853 -27.8968 79° East 539 620 35,000  Level FlightAware Transoceanic
01:31AM 51.3147 -27.6616 79° East 539 620 35,000  Level FlightAware Transoceanic
01:32AM 51.3436 -27.4260 79° East 539 620 35,000  Level FlightAware Transoceanic
01:33AM 51.3720 -27.1902 79° East 539 620 35,000  Level FlightAware Transoceanic
01:34AM 51.4000 -26.9540 79° East 539 620 35,000  Level FlightAware Transoceanic
01:35AM 51.4274 -26.7176 80° East 539 620 35,000  Level FlightAware Transoceanic
01:36AM 51.4544 -26.4809 80° East 539 620 35,000  Level FlightAware Transoceanic
01:37AM 51.4810 -26.2439 80° East 539 620 35,000  Level FlightAware Transoceanic
01:38AM 51.5070 -26.0067 80° East 539 620 35,000  Level FlightAware Transoceanic
01:39AM 51.5326 -25.7691 80° East 539 620 35,000  Level FlightAware Transoceanic
01:40AM 51.5577 -25.5313 80° East 539 620 35,000  Level FlightAware Transoceanic
01:41AM 51.5822 -25.2933 81° East 539 620 35,000  Level FlightAware Transoceanic
01:42AM 51.6064 -25.0550 81° East 539 620 35,000  Level FlightAware Transoceanic
01:43AM 51.6300 -24.8164 81° East 539 620 35,000  Level FlightAware Transoceanic
01:44AM 51.6531 -24.5776 81° East 539 620 35,000  Level FlightAware Transoceanic
01:45AM 51.6758 -24.3386 81° East 539 620 35,000  Level FlightAware Transoceanic
01:46AM 51.6980 -24.0993 82° East 539 620 35,000  Level FlightAware Transoceanic
01:47AM 51.7197 -23.8598 82° East 539 620 35,000  Level FlightAware Transoceanic
01:48AM 51.7409 -23.6201 82° East 539 620 35,000  Level FlightAware Transoceanic
01:49AM 51.7616 -23.3801 82° East 539 620 35,000  Level FlightAware Transoceanic
01:50AM 51.7818 -23.1399 82° East 539 620 35,000  Level FlightAware Transoceanic
01:51AM 51.8016 -22.8995 83° East 539 620 35,000  Level FlightAware Transoceanic
01:52AM 51.8208 -22.6589 83° East 539 620 35,000  Level FlightAware Transoceanic
01:53AM 51.8396 -22.4181 83° East 539 620 35,000  Level FlightAware Transoceanic
01:54AM 51.8579 -22.1771 83° East 539 620 35,000  Level FlightAware Transoceanic
01:55AM 51.8756 -21.9359 83° East 539 620 35,000  Level FlightAware Transoceanic
01:56AM 51.8929 -21.6945 83° East 539 620 35,000  Level FlightAware Transoceanic
01:57AM 51.9097 -21.4530 84° East 539 620 35,000  Level FlightAware Transoceanic
01:58AM 51.9260 -21.2112 84° East 539 620 35,000  Level FlightAware Transoceanic
01:59AM 51.9418 -20.9693 84° East 539 620 35,000  Level FlightAware Transoceanic
02:00AM 51.9571 -20.7272 84° East 539 620 35,000  Level FlightAware Transoceanic
02:01AM 51.9719 -20.4850 84° East 539 620 35,000  Level FlightAware Transoceanic
02:02AM 51.9862 -20.2426 85° East 539 620 35,000  Level FlightAware Transoceanic
02:03AM 51.9996 -20.0069 85° East  Level FlightAware Approximate
02:04AM 52.0127 -19.7711 85° East  Level FlightAware Approximate
02:05AM 52.0082 -19.7775 86° East  Level FlightAware Approximate
02:06AM 52.0165 -19.5411 87° East  Level FlightAware Approximate
02:07AM 52.0243 -19.3046 87° East  Level FlightAware Approximate
02:08AM 52.0316 -19.0681 87° East  Level FlightAware Approximate
02:09AM 52.0385 -18.8314 87° East  Level FlightAware Approximate
02:10AM 52.0448 -18.5947 87° East  Level FlightAware Approximate
02:11AM 52.0508 -18.3580 88° East  Level FlightAware Approximate
02:12AM 52.0562 -18.1211 88° East  Level FlightAware Approximate
02:13AM 52.0611 -17.8843 88° East  Level FlightAware Approximate
02:14AM 52.0656 -17.6473 88° East  Level FlightAware Approximate
02:15AM 52.0696 -17.4104 88° East  Level FlightAware Approximate
02:16AM 52.0731 -17.1733 89° East  Level FlightAware Approximate
02:17AM 52.0762 -16.9363 89° East  Level FlightAware Approximate
02:18AM 52.0788 -16.6992 89° East  Level FlightAware Approximate
02:19AM 52.0809 -16.4621 89° East  Level FlightAware Approximate
02:20AM 52.0825 -16.2250 89° East  Level FlightAware Approximate
02:21AM 52.0836 -15.9878 89° East  Level FlightAware Approximate
02:22AM 52.0843 -15.7507 90° East  Level FlightAware Approximate
02:23AM 52.0845 -15.5135 90° East  Level FlightAware Approximate
02:24AM 52.0843 -15.2764 90° East  Level FlightAware Approximate
02:25AM 52.0835 -15.0392 90° East  Level FlightAware Approximate
02:26AM 52.0831 -14.8020 90° East  Level FlightAware Approximate
02:27AM 52.0825 -14.5649 90° East  Level FlightAware Approximate
02:28AM 52.0814 -14.3277 90° East  Level FlightAware Approximate
02:29AM 52.0798 -14.0906 91° East  Level FlightAware Approximate
02:30AM 52.0777 -13.8535 91° East  Level FlightAware Approximate
02:31AM 52.0751 -13.6164 91° East  Level FlightAware Approximate
02:32AM 52.0721 -13.3794 91° East  Level FlightAware Approximate
02:33AM 52.0686 -13.1424 91° East  Level FlightAware Approximate
02:34AM 52.0646 -12.9054 91° East  Level FlightAware Approximate
02:35AM 52.0602 -12.6685 92° East  Level FlightAware Approximate
02:36AM 52.0552 -12.4316 92° East  Level FlightAware Approximate
02:36AM 51.9970 -11.9230 92° East 510 587 35,000  Level FlightAware
02:37AM 52.0498 -12.1948 92° East  Level FlightAware Approximate
02:37AM 51.9930 -11.7540 92° East 509 586 35,000  Level FlightAware
02:38AM 51.9900 -11.6210 92° East 509 586 35,000  Level FlightAware
02:38AM 51.9870 -11.4680 92° East 509 586 35,000  Level FlightAware
02:39AM 51.9850 -11.3400 91° East 510 587 35,000  Level FlightAware
02:40AM 51.9820 -11.1950 92° East 512 589 35,000  Level FlightAware
02:40AM 51.9790 -11.0640 92° East 514 592 35,000  Level FlightAware
02:41AM 51.9760 -10.9210 92° East 514 592 35,000  Level FlightAware
02:41AM 51.9720 -10.7490 92° East 515 593 35,000  Level FlightAware
02:42AM 51.9680 -10.6170 93° East 516 594 35,000  Level FlightAware
02:43AM 51.9650 -10.4880 92° East 516 594 35,000  Level FlightAware
02:43AM 51.9610 -10.3530 93° East 516 594 35,000  Level FlightAware
02:44AM 51.9580 -10.2250 92° East 517 595 35,000  Level FlightAware
02:44AM 51.9530 -10.0860 93° East 516 594 35,000  Level FlightAware
02:45AM 51.9480 -9.9240 93° East 517 595 35,000  Level FlightAware
02:46AM 51.9440 -9.7860 93° East 517 595 35,000  Level FlightAware
02:46AM 51.9400 -9.6720 93° East 517 595 35,000  Level FlightAware
02:47AM 51.9350 -9.5250 93° East 518 596 35,000  Level FlightAware
02:47AM 51.9300 -9.3930 93° East 519 597 35,000  Level FlightAware
02:48AM 51.9250 -9.2620 93° East 521 600 35,000  Level FlightAware
02:48AM 51.9200 -9.1250 93° East 521 600 35,000  Level FlightAware
02:49AM 51.9140 -8.9760 94° East 521 600 35,000  Level FlightAware
02:50AM 51.9080 -8.8380 94° East 521 600 35,000  Level FlightAware
02:50AM 51.9020 -8.7010 94° East 521 600 35,000  Level FlightAware
02:50AM 51.8916 -8.6265 94° East 496 571 35,000  Level FlightAware UK
02:51AM 51.8970 -8.5840 94° East 520 598 35,000  Level FlightAware
02:51AM 51.8863 -8.5100 94° East 496 571 35,000  Level FlightAware UK
02:51AM 51.8808 -8.3933 94° East 498 573 35,000  Level FlightAware UK
02:51AM 51.8900 -8.4350 94° East 518 596 35,000  Level FlightAware
02:52AM 51.8840 -8.2960 94° East 516 594 35,000  Level FlightAware
02:53AM 51.8770 -8.1590 95° East 515 593 35,000  Level FlightAware
02:53AM 51.8700 -8.0270 95° East 515 593 35,000  Level FlightAware
02:54AM 51.8630 -7.8930 95° East 514 592 35,000  Level FlightAware
02:54AM 51.8473 -7.6997 95° East 490 564 35,000  Level FlightAware UK
02:54AM 51.8550 -7.7510 95° East 514 592 35,000  Level FlightAware
02:55AM 51.8480 -7.6180 95° East 515 593 35,000  Level FlightAware
02:55AM 51.8410 -7.4910 95° East 516 594 35,000  Level FlightAware
02:56AM 51.8330 -7.3530 95° East 517 595 35,000  Level FlightAware
02:57AM 51.8260 -7.2140 95° East 518 596 35,000  Level FlightAware
02:57AM 51.8180 -7.0900 96° East 519 597 35,000  Level FlightAware
02:58AM 51.8011 -6.8933 96° East 492 566 35,000  Level FlightAware UK
02:58AM 51.8100 -6.9510 96° East 519 597 35,000  Level FlightAware
02:58AM 51.8020 -6.8270 96° East 519 597 35,000  Level FlightAware
02:59AM 51.7930 -6.6810 96° East 519 597 35,000  Level FlightAware
02:59AM 51.7860 -6.5590 95° East 522 601 35,000  Level FlightAware
03:00AM 51.7800 -6.4050 94° East 522 601 35,000  Level FlightAware
03:01AM 51.7750 -6.2640 93° East 523 602 35,000  Level FlightAware
03:01AM 51.7628 -6.0793 93° East 490 564 35,000  Level FlightAware UK
03:01AM 51.7700 -6.1380 93° East 525 604 35,000  Level FlightAware
03:02AM 51.7650 -6.0060 93° East 526 605 35,000  Level FlightAware
03:02AM 51.7527 -5.8216 93° East 490 564 35,000  Level FlightAware UK
03:02AM 51.7580 -5.8560 93° East 526 605 35,000  Level FlightAware
03:03AM 51.7520 -5.7320 94° East 527 606 35,000  Level FlightAware
03:04AM 51.7460 -5.5900 94° East 527 606 35,000  Level FlightAware
03:04AM 51.7390 -5.4480 94° East 528 608 35,000  Level FlightAware
03:05AM 51.7320 -5.3070 95° East 528 608 35,000  Level FlightAware
03:05AM 51.7260 -5.1830 94° East 528 608 35,000  Level FlightAware
03:06AM 51.7143 -4.9756 94° East 492 566 35,000  Level FlightAware UK
03:06AM 51.7190 -5.0430 94° East 528 608 35,000  Level FlightAware
03:06AM 51.7088 -4.8579 94° East 492 566 35,000  Level FlightAware UK
03:07AM 51.7120 -4.9020 94° East 528 608 35,000  Level FlightAware
03:07AM 51.7060 -4.7590 94° East 529 609 35,000  Level FlightAware
03:08AM 51.6990 -4.6260 95° East 528 608 35,000  Level FlightAware
03:08AM 51.6910 -4.4840 95° East 529 609 35,000  Level FlightAware
03:09AM 51.6840 -4.3590 95° East 528 608 35,000  Level FlightAware
03:09AM 51.6760 -4.2180 95° East 528 608 35,000  Level FlightAware
03:10AM 51.6710 -3.9875 95° East 492 566 35,000  Level FlightAware UK
03:10AM 51.6730 -4.0500 95° East 534 615 35,000  Level FlightAware
03:10AM 51.6760 -3.9880 86° East 534 615 35,000  Level FlightAware
03:11AM 51.6827 -3.7493 86° East 492 566 35,000  Level FlightAware UK
03:11AM 51.6850 -3.7890 86° East 534 615 35,000  Level FlightAware
03:12AM 51.6900 -3.6683 86° East 535 616 35,000  Level FlightAware ADS-B
03:12AM 51.6953 -3.5429 86° East 536 617 35,000  Level FlightAware ADS-B
03:13AM 51.7005 -3.4141 86° East 536 617 35,000  Level FlightAware ADS-B
03:13AM 51.7060 -3.2687 86° East 537 618 35,000  Level FlightAware ADS-B
03:14AM 51.7108 -3.1367 87° East 537 618 35,000  Level FlightAware ADS-B
03:15AM 51.7149 -3.0146 87° East 537 618 35,000  Level FlightAware ADS-B
03:15AM 51.7192 -2.8912 87° East 537 618 35,000  Level FlightAware ADS-B
03:16AM 51.7232 -2.7697 87° East 537 618 35,000  Level FlightAware ADS-B
03:16AM 51.7272 -2.6473 87° East 537 618 35,000  Level FlightAware ADS-B
03:17AM 51.7312 -2.5259 87° East 537 618 35,000  Level FlightAware ADS-B
03:17AM 51.7350 -2.4027 87° East 538 619 35,000  Level FlightAware ADS-B
03:18AM 51.7386 -2.2795 87° East 538 619 35,000  Level FlightAware ADS-B
03:18AM 51.7422 -2.1563 87° East 538 619 35,000  Level FlightAware ADS-B
03:19AM 51.7460 -2.0235 87° East 538 619 35,000  Level FlightAware ADS-B
03:19AM 51.7477 -1.9513 88° East 537 618 35,000  Level FlightAware ADS-B
03:19AM 51.7473 -1.9093 91° East 536 617 35,000  Level FlightAware ADS-B
03:19AM 51.7464 -1.8770 93° East 535 616 35,000  Level FlightAware ADS-B
03:20AM 51.7416 -1.7959 95° East 533 613 35,000  Level FlightAware ADS-B
03:20AM 51.7281 -1.6779 100° East 530 610 35,000  Level FlightAware ADS-B
03:21AM 51.7123 -1.5534 102° East 531 611 35,000  Level FlightAware ADS-B
03:21AM 51.6974 -1.4366 102° East 530 610 35,000  Level FlightAware ADS-B
03:22AM 51.6820 -1.3193 102° East 531 611 35,000  Level FlightAware ADS-B
03:22AM 51.6656 -1.1964 102° East 531 611 35,000  Level FlightAware ADS-B
03:23AM 51.6480 -1.0637 102° East 532 612 35,000  Level FlightAware ADS-B
03:23AM 51.6319 -0.9447 102° East 531 611 35,000  Level FlightAware ADS-B
03:24AM 51.6159 -0.8282 102° East 531 611 35,000  Level FlightAware ADS-B
03:24AM 51.5996 -0.7092 102° East 532 612 35,000  Level FlightAware ADS-B
03:25AM 51.5832 -0.5930 103° East 532 612 35,000  Level FlightAware ADS-B
03:25AM 51.5671 -0.4769 103° East 532 612 35,000  Level FlightAware ADS-B
03:26AM 51.5502 -0.3562 103° East 533 613 35,000  Level FlightAware ADS-B
03:26AM 51.5333 -0.2359 103° East 534 615 35,000  Level FlightAware ADS-B
03:27AM 51.5161 -0.1157 103° East 534 615 35,000  Level FlightAware ADS-B
03:27AM 51.4989 0.0047 103° East 534 615 35,000  Level FlightAware ADS-B
03:28AM 51.4822 0.1218 103° East 535 616 35,000  Level FlightAware ADS-B
03:28AM 51.4647 0.2409 103° East 535 616 35,000  Level FlightAware ADS-B
03:29AM 51.4470 0.3596 103° East 536 617 35,000  Level FlightAware ADS-B
03:29AM 51.4284 0.4818 104° East 537 618 35,000  Level FlightAware ADS-B
03:30AM 51.4109 0.5978 104° East 537 618 35,000  Level FlightAware ADS-B
03:30AM 51.3927 0.7168 104° East 536 617 35,000  Level FlightAware ADS-B
03:31AM 51.3749 0.8347 104° East 536 617 35,000  Level FlightAware ADS-B
03:32AM 51.3541 0.9718 104° East 536 617 35,000  Level FlightAware ADS-B
03:32AM 51.3287 1.2180 104° East 494 568 35,000  Level FlightAware UK
03:32AM 51.3220 1.1830 104° East 535 616 35,000  Level FlightAware
03:33AM 51.3010 1.3190 104° East 535 616 35,000  Level FlightAware
03:34AM 51.2800 1.4540 104° East 534 615 35,000  Level FlightAware
03:34AM 51.2600 1.5820 104° East 535 616 35,000  Level FlightAware
03:35AM 51.2370 1.7240 104° East 535 616 35,000  Level FlightAware
03:35AM 51.2090 1.8590 108° East 533 613 35,000  Level FlightAware
03:36AM 51.1790 1.9670 114° Southeast 530 610 35,000  Level FlightAware
03:37AM 51.1420 2.0920 115° Southeast 530 610 35,000  Level FlightAware
03:37AM 51.1090 2.1990 116° Southeast 528 608 35,000  Level FlightAware
03:38AM 51.0670 2.3390 115° Southeast 528 608 35,000  Level FlightAware
03:38AM 51.0280 2.4650 115° Southeast 528 608 35,000  Level FlightAware
03:38AM 51.0290 2.5151 115° Southeast 490 564 35,000 480 Level FlightAware UK
03:39AM 50.9930 2.5790 116° Southeast 532 612 35,300 900 Climbing FlightAware
03:40AM 50.9490 2.7230 116° Southeast 533 613 36,100 1,080 Climbing FlightAware
03:40AM 50.9130 2.8400 116° Southeast 531 611 36,700 780 Climbing FlightAware
03:41AM 50.8770 2.9540 117° Southeast 532 612 37,000 240 Climbing FlightAware
03:41AM 50.8370 3.0820 116° Southeast 530 610 37,000  Level FlightAware
03:42AM 50.8010 3.1960 117° Southeast 529 609 37,000  Level FlightAware
03:42AM 50.7620 3.3200 116° Southeast 527 606 37,000  Level FlightAware
03:43AM 50.7244 3.4742 116° Southeast 492 566 37,000  Level FlightAware UK
03:43AM 50.7240 3.4370 116° Southeast 527 606 37,000  Level FlightAware
03:44AM 50.6870 3.5530 117° Southeast 526 605 37,000  Level FlightAware
03:44AM 50.6410 3.6950 117° Southeast 526 605 37,000  Level FlightAware
03:45AM 50.6000 3.8220 117° Southeast 526 605 37,000  Level FlightAware
03:45AM 50.5650 3.9300 117° Southeast 526 605 37,000  Level FlightAware
03:46AM 50.5240 4.0550 117° Southeast 527 606 37,000  Level FlightAware
03:47AM 50.4850 4.1750 117° Southeast 528 608 37,000  Level FlightAware
03:47AM 50.4430 4.3010 118° Southeast 528 608 37,000  Level FlightAware
03:48AM 50.4020 4.4260 117° Southeast 528 608 37,000  Level FlightAware
03:48AM 50.3670 4.5310 118° Southeast 527 606 37,000  Level FlightAware
03:49AM 50.3290 4.6440 118° Southeast 528 608 37,000  Level FlightAware
03:50AM 50.2810 4.7830 118° Southeast 528 608 37,000  Level FlightAware
03:50AM 50.2430 4.8960 118° Southeast 529 609 37,000  Level FlightAware
03:51AM 50.2030 5.0140 118° Southeast 529 609 37,000  Level FlightAware
03:51AM 50.1620 5.1340 118° Southeast 529 609 37,000  Level FlightAware
03:52AM 50.1210 5.2570 117° Southeast 529 609 37,000  Level FlightAware
03:52AM 50.0850 5.3630 118° Southeast 528 608 37,000  Level FlightAware
03:53AM 50.0440 5.4810 118° Southeast 528 608 37,000  Level FlightAware
03:54AM 50.0010 5.6070 118° Southeast 529 609 37,000  Level FlightAware
03:54AM 49.9660 5.7070 119° Southeast 529 609 37,000  Level FlightAware
03:55AM 49.9190 5.8410 119° Southeast 529 609 37,000  Level FlightAware
03:55AM 49.8800 5.9520 119° Southeast 528 608 37,000  Level FlightAware
03:56AM 49.8430 6.0590 118° Southeast 528 608 37,000  Level FlightAware
03:57AM 49.7990 6.1830 119° Southeast 528 608 37,000  Level FlightAware
03:57AM 49.7590 6.2980 118° Southeast 528 608 37,000  Level FlightAware
03:58AM 49.7220 6.4030 119° Southeast 528 608 37,000  Level FlightAware
03:58AM 49.6760 6.5270 120° Southeast 528 608 37,000  Level FlightAware
03:59AM 49.6320 6.6470 119° Southeast 527 606 37,000  Level FlightAware
03:59AM 49.5940 6.7510 119° Southeast 528 608 37,000  Level FlightAware
04:00AM 49.5520 6.8650 120° Southeast 527 606 37,000  Level FlightAware
04:01AM 49.5080 6.9850 119° Southeast 527 606 37,000  Level FlightAware
04:01AM 49.4630 7.1060 120° Southeast 528 608 37,000  Level FlightAware
04:02AM 49.4250 7.2070 120° Southeast 528 608 37,000  Level FlightAware
04:02AM 49.3820 7.3240 119° Southeast 527 606 37,000  Level FlightAware
04:03AM 49.3420 7.4310 120° Southeast 528 608 37,000  Level FlightAware
04:04AM 49.2880 7.5750 120° Southeast 527 606 37,000  Level FlightAware
04:04AM 49.2430 7.6940 120° Southeast 527 606 37,000  Level FlightAware
04:05AM 49.2060 7.7910 120° Southeast 526 605 37,000  Level FlightAware
04:05AM 49.1580 7.9160 120° Southeast 526 605 37,000  Level FlightAware
04:06AM 49.1150 8.0270 121° Southeast 525 604 37,000  Level FlightAware
04:07AM 49.0610 8.1660 121° Southeast 525 604 37,000  Level FlightAware
04:07AM 49.0160 8.2830 120° Southeast 524 603 37,000  Level FlightAware
04:08AM 48.9790 8.3770 121° Southeast 524 603 37,000  Level FlightAware
04:08AM 48.9270 8.4920 125° Southeast 523 602 37,000  Level FlightAware
04:09AM 48.8670 8.5910 133° Southeast 522 601 37,000  Level FlightAware
04:10AM 48.8000 8.6860 137° Southeast 521 600 37,000  Level FlightAware
04:10AM 48.7350 8.7800 136° Southeast 521 600 37,000  Level FlightAware
04:11AM 48.7030 8.8240 138° Southeast 521 600 37,000  Level FlightAware
04:11AM 48.6150 8.9500 137° Southeast 522 601 37,000  Level FlightAware
04:12AM 48.5600 9.0270 137° Southeast 521 600 37,000  Level FlightAware
04:13AM 48.4930 9.1210 137° Southeast 521 600 37,000  Level FlightAware
04:13AM 48.4320 9.2070 137° Southeast 522 601 37,000  Level FlightAware
04:14AM 48.3740 9.2870 137° Southeast 522 601 37,000  Level FlightAware
04:14AM 48.3100 9.3770 137° Southeast 522 601 37,000  Level FlightAware
04:15AM 48.2480 9.4620 138° Southeast 522 601 37,000  Level FlightAware
04:15AM 48.1990 9.5330 136° Southeast 522 601 37,000  Level FlightAware
04:16AM 48.1350 9.6270 136° Southeast 522 601 37,000  Level FlightAware
04:17AM 48.0760 9.7120 136° Southeast 523 602 37,000  Level FlightAware
04:17AM 48.0240 9.7870 136° Southeast 522 601 37,000  Level FlightAware
04:18AM 47.9540 9.8880 136° Southeast 523 602 37,000  Level FlightAware
04:18AM 47.8940 9.9730 136° Southeast 524 603 37,000  Level FlightAware
04:19AM 47.8290 10.0650 136° Southeast 524 603 37,000  Level FlightAware
04:19AM 47.7810 10.1320 137° Southeast 524 603 37,000  Level FlightAware
04:20AM 47.7110 10.2300 137° Southeast 523 602 37,000  Level FlightAware
04:21AM 47.6520 10.3130 137° Southeast 524 603 37,000  Level FlightAware
04:21AM 47.5970 10.3880 137° Southeast 517 595 37,000  Level FlightAware
04:22AM 47.5360 10.4740 136° Southeast 517 595 37,000  Level FlightAware
04:22AM 47.4610 10.5770 137° Southeast 517 595 37,000  Level FlightAware
04:23AM 47.3910 10.6730 137° Southeast 522 601 37,000  Level FlightAware
04:24AM 47.3340 10.7510 137° Southeast 522 601 37,000  Level FlightAware
04:24AM 47.2680 10.8420 137° Southeast 523 602 37,000  Level FlightAware
04:25AM 47.2110 10.9190 137° Southeast 522 601 37,000  Level FlightAware
04:25AM 47.1490 11.0040 137° Southeast 522 601 37,000  Level FlightAware
04:26AM 47.0740 11.1060 137° Southeast 523 602 37,000  Level FlightAware
04:27AM 46.9910 11.2180 137° Southeast 522 601 37,000  Level FlightAware
04:27AM 46.9240 11.3080 137° Southeast 523 602 37,000  Level FlightAware
04:28AM 46.8660 11.3860 137° Southeast 523 602 37,000  Level FlightAware
04:29AM 46.8060 11.4660 138° Southeast 523 602 37,000  Level FlightAware
04:29AM 46.7400 11.5530 138° Southeast 523 602 37,000  Level FlightAware
04:30AM 46.6810 11.6320 137° Southeast 523 602 37,000  Level FlightAware
04:30AM 46.6190 11.7130 138° Southeast 522 601 37,000  Level FlightAware
04:31AM 46.5620 11.7880 138° Southeast 521 600 37,000  Level FlightAware
04:32AM 46.4850 11.8900 138° Southeast 522 601 37,000  Level FlightAware
04:32AM 46.4260 11.9650 139° Southeast 522 601 37,000  Level FlightAware
04:33AM 46.3660 12.0440 138° Southeast 521 600 37,000  Level FlightAware
04:33AM 46.2980 12.1320 138° Southeast 522 601 37,000  Level FlightAware
04:34AM 46.2440 12.2020 138° Southeast 521 600 37,000  Level FlightAware
04:35AM 46.1600 12.3100 138° Southeast 521 600 37,000  Level FlightAware
04:35AM 46.0950 12.3930 138° Southeast 521 600 37,000  Level FlightAware
04:36AM 46.0380 12.4670 138° Southeast 522 601 37,000  Level FlightAware
04:36AM 45.9740 12.5490 138° Southeast 522 601 37,000  Level FlightAware
04:37AM 45.9110 12.6290 139° Southeast 521 600 37,000  Level FlightAware
04:37AM 45.8450 12.7140 138° Southeast 521 600 37,000  Level FlightAware
04:38AM 45.7790 12.7970 139° Southeast 521 600 37,000  Level FlightAware
04:39AM 45.7210 12.8700 139° Southeast 521 600 37,000  Level FlightAware
04:39AM 45.6540 12.9550 138° Southeast 521 600 37,000  Level FlightAware
04:40AM 45.5920 13.0330 139° Southeast 521 600 37,000  Level FlightAware
04:40AM 45.5330 13.1070 139° Southeast 521 600 37,000  Level FlightAware
04:41AM 45.4590 13.2010 138° Southeast 519 597 37,000  Level FlightAware
04:42AM 45.3970 13.2990 132° Southeast 517 595 37,000  Level FlightAware
04:42AM 45.3490 13.3890 127° Southeast 516 594 37,000  Level FlightAware
04:43AM 45.3060 13.4690 127° Southeast 516 594 37,000  Level FlightAware
04:43AM 45.2470 13.5810 127° Southeast 516 594 37,000  Level FlightAware
04:44AM 45.1890 13.6890 127° Southeast 517 595 37,000  Level FlightAware
04:45AM 45.1520 13.7590 127° Southeast 517 595 37,000  Level FlightAware
04:45AM 45.0880 13.8760 128° Southeast 517 595 37,000  Level FlightAware
04:46AM 45.0420 13.9620 127° Southeast 513 590 37,000  Level FlightAware
04:46AM 44.9890 14.0610 127° Southeast 513 590 37,000  Level FlightAware
04:47AM 44.9370 14.1560 128° Southeast 513 590 37,000  Level FlightAware
04:48AM 44.8860 14.2500 127° Southeast 512 589 37,000  Level FlightAware
04:48AM 44.8380 14.3370 128° Southeast 512 589 37,000  Level FlightAware
04:49AM 44.7860 14.4330 127° Southeast 513 590 37,000  Level FlightAware
04:49AM 44.7340 14.5270 128° Southeast 514 592 37,000  Level FlightAware
04:50AM 44.6860 14.6140 128° Southeast 514 592 37,000  Level FlightAware
04:51AM 44.6240 14.7260 128° Southeast 514 592 37,000  Level FlightAware
04:51AM 44.5790 14.8070 128° Southeast 514 592 37,000  Level FlightAware
04:52AM 44.5260 14.9020 128° Southeast 514 592 37,000  Level FlightAware
04:52AM 44.4750 14.9950 128° Southeast 520 598 37,000  Level FlightAware
04:53AM 44.4230 15.0880 128° Southeast 520 598 37,000  Level FlightAware
04:53AM 44.3720 15.1790 128° Southeast 520 598 37,000  Level FlightAware
04:54AM 44.3180 15.2750 128° Southeast 519 597 37,000  Level FlightAware
04:55AM 44.2670 15.3660 128° Southeast 520 598 37,000  Level FlightAware
04:55AM 44.2150 15.4580 128° Southeast 519 597 37,000  Level FlightAware
04:56AM 44.1620 15.5500 129° Southeast 519 597 37,000  Level FlightAware
04:56AM 44.1090 15.6430 128° Southeast 519 597 37,000  Level FlightAware
04:57AM 44.0540 15.7390 129° Southeast 519 597 37,000  Level FlightAware
04:58AM 44.0010 15.8320 128° Southeast 518 596 37,000  Level FlightAware
04:58AM 43.9500 15.9200 129° Southeast 518 596 37,000  Level FlightAware
04:59AM 43.9010 16.0060 128° Southeast 518 596 37,000  Level FlightAware
04:59AM 43.8440 16.1040 129° Southeast 520 598 37,000  Level FlightAware
05:00AM 43.7900 16.1970 129° Southeast 520 598 37,000  Level FlightAware
05:00AM 43.7390 16.2860 128° Southeast 521 600 37,000  Level FlightAware
05:01AM 43.6850 16.3780 129° Southeast 522 601 37,000  Level FlightAware
05:02AM 43.6430 16.4500 129° Southeast 522 601 37,000  Level FlightAware
05:02AM 43.5790 16.5600 129° Southeast 522 601 37,000  Level FlightAware
05:03AM 43.5270 16.6490 129° Southeast 523 602 37,000  Level FlightAware
05:03AM 43.4750 16.7360 129° Southeast 523 602 37,000  Level FlightAware
05:04AM 43.4260 16.8200 129° Southeast 523 602 37,000  Level FlightAware
05:05AM 43.3620 16.9270 129° Southeast 524 603 37,000  Level FlightAware
05:05AM 43.3120 17.0110 129° Southeast 524 603 37,000  Level FlightAware
05:06AM 43.2560 17.1040 130° Southeast 526 605 37,000  Level FlightAware
05:06AM 43.2050 17.1920 128° Southeast 526 605 37,000  Level FlightAware
05:07AM 43.1490 17.2860 129° Southeast 526 605 37,000  Level FlightAware
05:07AM 43.1010 17.3660 129° Southeast 527 606 37,000  Level FlightAware
05:08AM 43.0410 17.4660 129° Southeast 525 604 37,000  Level FlightAware
05:09AM 42.9900 17.5520 129° Southeast 525 604 37,000  Level FlightAware
05:09AM 42.9350 17.6430 130° Southeast 525 604 37,000  Level FlightAware
05:10AM 42.8770 17.7380 130° Southeast 527 606 37,000  Level FlightAware
05:10AM 42.8290 17.8170 130° Southeast 527 606 37,000  Level FlightAware
05:11AM 42.7730 17.9090 130° Southeast 526 605 37,000  Level FlightAware
05:12AM 42.7160 18.0020 130° Southeast 527 606 37,000  Level FlightAware
05:12AM 42.6680 18.0800 130° Southeast 527 606 37,000  Level FlightAware
05:13AM 42.6080 18.1780 130° Southeast 528 608 37,000  Level FlightAware
05:13AM 42.5490 18.2690 131° Southeast 530 610 37,000  Level FlightAware
05:14AM 42.4930 18.3450 135° Southeast 530 610 37,000  Level FlightAware
05:14AM 42.4290 18.4330 135° Southeast 531 611 37,000  Level FlightAware
05:15AM 42.3650 18.5200 135° Southeast 532 612 37,000  Level FlightAware
05:16AM 42.3120 18.5910 135° Southeast 532 612 37,000  Level FlightAware
05:16AM 42.2450 18.6770 136° Southeast 532 612 37,000  Level FlightAware
05:17AM 42.1800 18.7590 137° Southeast 532 612 37,000  Level FlightAware
05:17AM 42.1230 18.8300 137° Southeast 532 612 37,000  Level FlightAware
05:18AM 42.0590 18.9120 136° Southeast 531 611 37,000  Level FlightAware
05:19AM 41.9940 18.9930 137° Southeast 532 612 37,000  Level FlightAware
05:19AM 41.9290 19.0760 136° Southeast 534 615 37,000  Level FlightAware
05:20AM 41.8660 19.1560 137° Southeast 534 615 37,000  Level FlightAware
05:20AM 41.8070 19.2300 137° Southeast 534 615 37,000  Level FlightAware
05:21AM 41.7420 19.3120 137° Southeast 534 615 37,000  Level FlightAware
05:21AM 41.6760 19.3940 137° Southeast 535 616 37,000  Level FlightAware
05:22AM 41.6180 19.4660 137° Southeast 534 615 37,000  Level FlightAware
05:23AM 41.5530 19.5460 137° Southeast 534 615 37,000  Level FlightAware
05:23AM 41.4880 19.6270 137° Southeast 535 616 37,000  Level FlightAware
05:24AM 41.4230 19.7070 137° Southeast 534 615 37,000  Level FlightAware
05:24AM 41.3680 19.7810 135° Southeast 534 615 37,000  Level FlightAware
05:25AM 41.3090 19.8640 133° Southeast 533 613 37,000  Level FlightAware
05:26AM 41.2460 19.9490 135° Southeast 534 615 37,000  Level FlightAware
05:26AM 41.1850 20.0320 134° Southeast 534 615 37,000  Level FlightAware
05:27AM 41.1300 20.1060 135° Southeast 533 613 37,000  Level FlightAware
05:27AM 41.0700 20.1870 134° Southeast 534 615 37,000  Level FlightAware
05:28AM 41.0010 20.2800 134° Southeast 536 617 37,000  Level FlightAware
05:28AM 40.9410 20.3600 135° Southeast 536 617 37,000  Level FlightAware
05:29AM 40.8760 20.4460 135° Southeast 538 619 37,000  Level FlightAware
05:30AM 40.8210 20.5180 135° Southeast 538 619 37,000  Level FlightAware
05:30AM 40.7590 20.5960 136° Southeast 538 619 37,000  Level FlightAware
05:31AM 40.6890 20.6810 137° Southeast 535 616 37,000  Level FlightAware
05:31AM 40.6210 20.7630 138° Southeast 534 615 37,000  Level FlightAware
05:32AM 40.5640 20.8320 137° Southeast 533 613 37,000  Level FlightAware
05:33AM 40.4980 20.9120 137° Southeast 531 611 37,000  Level FlightAware
05:33AM 40.4340 20.9900 137° Southeast 530 610 37,000  Level FlightAware
05:34AM 40.3760 21.0610 137° Southeast 529 609 37,000  Level FlightAware
05:34AM 40.3140 21.1360 137° Southeast 528 608 37,000  Level FlightAware
05:35AM 40.2460 21.2180 137° Southeast 527 606 37,000  Level FlightAware
05:35AM 40.1840 21.2930 137° Southeast 527 606 37,000  Level FlightAware
05:36AM 40.1250 21.3630 138° Southeast 527 606 37,000  Level FlightAware
05:37AM 40.0590 21.4410 138° Southeast 528 608 37,000  Level FlightAware
05:37AM 39.9950 21.5170 138° Southeast 527 606 37,000  Level FlightAware
05:38AM 39.9370 21.5850 138° Southeast 527 606 37,000  Level FlightAware
05:38AM 39.8670 21.6630 139° Southeast 526 605 37,000  Level FlightAware
05:39AM 39.7990 21.7390 139° Southeast 526 605 37,000  Level FlightAware
05:40AM 39.7320 21.8140 139° Southeast 526 605 37,000  Level FlightAware
05:40AM 39.6720 21.8800 140° Southeast 526 605 37,000  Level FlightAware
05:41AM 39.6070 21.9530 139° Southeast 526 605 37,000  Level FlightAware
05:41AM 39.5450 22.0230 139° Southeast 526 605 37,000  Level FlightAware
05:42AM 39.4740 22.1020 139° Southeast 526 605 37,000  Level FlightAware
05:42AM 39.4150 22.1670 140° Southeast 526 605 37,000  Level FlightAware
05:43AM 39.3470 22.2420 140° Southeast 526 605 37,000  Level FlightAware
05:44AM 39.2850 22.3100 140° Southeast 525 604 37,000  Level FlightAware
05:44AM 39.2070 22.3960 139° Southeast 525 604 37,000  Level FlightAware
05:45AM 39.1400 22.4690 140° Southeast 527 606 37,000  Level FlightAware
05:46AM 39.0620 22.5530 140° Southeast 528 608 37,000  Level FlightAware
05:46AM 38.9960 22.6250 140° Southeast 530 610 37,000  Level FlightAware
05:47AM 38.9330 22.6930 140° Southeast 531 611 37,000  Level FlightAware
05:47AM 38.8680 22.7640 140° Southeast 533 613 37,000  Level FlightAware
05:48AM 38.8020 22.8350 140° Southeast 536 617 37,000  Level FlightAware
05:49AM 38.7320 22.9100 140° Southeast 538 619 37,000  Level FlightAware
05:49AM 38.6650 22.9820 140° Southeast 539 620 37,000  Level FlightAware
05:50AM 38.5940 23.0570 140° Southeast 542 624 37,000  Level FlightAware
05:50AM 38.5360 23.1190 140° Southeast 543 625 37,000  Level FlightAware
05:51AM 38.4600 23.1990 140° Southeast 543 625 37,000  Level FlightAware
05:51AM 38.3930 23.2700 140° Southeast 544 626 37,000  Level FlightAware
05:52AM 38.3210 23.3450 141° Southeast 544 626 37,000  Level FlightAware
05:53AM 38.2580 23.4120 140° Southeast 545 627 37,000  Level FlightAware
05:53AM 38.1920 23.4810 141° Southeast 546 628 37,000  Level FlightAware
05:54AM 38.1180 23.5590 140° Southeast 549 632 37,000  Level FlightAware
05:54AM 38.0580 23.6220 140° Southeast 549 632 37,000  Level FlightAware
05:55AM 37.9850 23.6990 140° Southeast 551 634 37,000  Level FlightAware
05:56AM 37.9160 23.7780 138° Southeast 552 635 37,000  Level FlightAware
05:56AM 37.8630 23.8520 132° Southeast 552 635 37,000  Level FlightAware
05:57AM 37.8020 23.9430 130° Southeast 551 634 37,000  Level FlightAware
05:57AM 37.7450 24.0360 128° Southeast 553 636 37,000  Level FlightAware
05:58AM 37.6930 24.1340 124° Southeast 553 636 37,000  Level FlightAware
05:58AM 37.6510 24.2160 123° Southeast 552 635 37,000  Level FlightAware
05:59AM 37.6010 24.3170 122° Southeast 553 636 37,000  Level FlightAware
06:00AM 37.5540 24.4120 122° Southeast 551 634 37,000  Level FlightAware
06:00AM 37.5040 24.5130 122° Southeast 550 633 37,000  Level FlightAware
06:01AM 37.4610 24.6020 121° Southeast 550 633 37,000  Level FlightAware
06:01AM 37.4130 24.6990 122° Southeast 551 634 37,000  Level FlightAware
06:02AM 37.3640 24.7980 122° Southeast 552 635 37,000  Level FlightAware
06:03AM 37.3150 24.8980 122° Southeast 553 636 37,000  Level FlightAware
06:03AM 37.2710 24.9850 122° Southeast 554 638 37,000  Level FlightAware
06:04AM 37.2240 25.0820 121° Southeast 556 640 37,000  Level FlightAware
06:04AM 37.1750 25.1800 122° Southeast 558 642 37,000  Level FlightAware
06:05AM 37.1260 25.2760 123° Southeast 560 644 37,000  Level FlightAware
06:05AM 37.0760 25.3750 122° Southeast 562 647 37,000  Level FlightAware
06:06AM 37.0310 25.4640 122° Southeast 562 647 37,000  Level FlightAware
06:07AM 36.9800 25.5620 123° Southeast 563 648 37,000  Level FlightAware
06:07AM 36.9290 25.6610 123° Southeast 561 646 37,000  Level FlightAware
06:08AM 36.8790 25.7590 123° Southeast 561 646 37,000  Level FlightAware
06:08AM 36.8310 25.8510 123° Southeast 561 646 37,000  Level FlightAware
06:09AM 36.7830 25.9460 122° Southeast 560 644 37,000  Level FlightAware
06:10AM 36.7310 26.0470 123° Southeast 560 644 37,000  Level FlightAware
06:10AM 36.6840 26.1370 123° Southeast 562 647 37,000  Level FlightAware
06:11AM 36.6460 26.2110 123° Southeast 562 647 37,000  Level FlightAware
06:11AM 36.5820 26.3360 122° Southeast 564 649 37,000  Level FlightAware
06:12AM 36.5300 26.4350 123° Southeast 563 648 37,000  Level FlightAware
06:12AM 36.4860 26.5200 123° Southeast 562 647 37,000  Level FlightAware
06:13AM 36.4330 26.6200 123° Southeast 560 644 37,000  Level FlightAware
06:14AM 36.3820 26.7180 123° Southeast 560 644 37,000  Level FlightAware
06:14AM 36.3330 26.8120 123° Southeast 559 643 37,000  Level FlightAware
06:15AM 36.2890 26.8960 123° Southeast 557 641 37,000  Level FlightAware
06:15AM 36.2440 26.9820 123° Southeast 557 641 37,000  Level FlightAware
06:16AM 36.1910 27.0800 124° Southeast 553 636 37,000  Level FlightAware
06:17AM 36.1440 27.1710 123° Southeast 553 636 37,000  Level FlightAware
06:17AM 36.1010 27.2520 123° Southeast 553 636 37,000  Level FlightAware
06:18AM 36.0590 27.3330 123° Southeast 553 636 37,000  Level FlightAware
06:18AM 36.0140 27.4190 123° Southeast 553 636 37,000  Level FlightAware
06:19AM 35.9710 27.5000 123° Southeast 553 636 37,000  Level FlightAware
06:20AM 35.9280 27.5810 123° Southeast 553 636 37,000  Level FlightAware
06:20AM 35.8860 27.6620 123° Southeast 553 636 37,000  Level FlightAware
06:21AM 35.8420 27.7460 123° Southeast 553 636 37,000  Level FlightAware
06:22AM 35.7980 27.8290 123° Southeast 553 636 37,000  Level FlightAware
06:22AM 35.7550 27.9100 123° Southeast 553 636 37,000  Level FlightAware
06:23AM 35.6260 28.1380 125° Southeast 544 626 37,000  Level FlightAware
06:23AM 35.5820 28.2180 124° Southeast 544 626 37,000  Level FlightAware
06:24AM 35.5300 28.3130 124° Southeast 544 626 37,000  Level FlightAware
06:24AM 35.4800 28.4050 124° Southeast 543 625 37,000  Level FlightAware
06:25AM 35.4300 28.4970 124° Southeast 542 624 37,000  Level FlightAware
06:26AM 35.3880 28.5730 124° Southeast 540 621 37,000  Level FlightAware
06:26AM 35.3330 28.6740 124° Southeast 540 621 37,000  Level FlightAware
06:27AM 35.2890 28.7540 124° Southeast 540 621 37,000  Level FlightAware
06:27AM 35.2370 28.8480 124° Southeast 540 621 37,000  Level FlightAware
06:28AM 35.1920 28.9320 123° Southeast 539 620 37,000  Level FlightAware
06:29AM 35.1500 29.0120 123° Southeast 539 620 37,000  Level FlightAware
06:29AM 35.1080 29.0910 123° Southeast 539 620 37,000  Level FlightAware
06:30AM 35.0430 29.1990 126° Southeast 542 624 37,000  Level FlightAware
06:30AM 34.9850 29.3040 124° Southeast 543 625 37,000  Level FlightAware
06:31AM 34.9420 29.3820 124° Southeast 543 625 37,000  Level FlightAware
06:32AM 34.8800 29.4930 124° Southeast 541 623 37,000  Level FlightAware
06:32AM 34.8300 29.5830 124° Southeast 540 621 37,000  Level FlightAware
06:33AM 34.7820 29.6680 124° Southeast 533 613 37,000  Level FlightAware
06:33AM 34.7280 29.7640 124° Southeast 531 611 37,000  Level FlightAware
06:34AM 34.6710 29.8660 124° Southeast 528 608 37,000  Level FlightAware
06:35AM 34.6130 29.9690 124° Southeast 532 612 37,000  Level FlightAware
06:35AM 34.5730 30.0490 121° Southeast 530 610 37,000  Level FlightAware
06:36AM 34.5310 30.1400 119° Southeast 530 610 37,000  Level FlightAware
06:36AM 34.4860 30.2340 120° Southeast 530 610 37,000  Level FlightAware
06:37AM 34.4430 30.3250 120° Southeast 529 609 37,000  Level FlightAware
06:38AM 34.3990 30.4180 120° Southeast 527 606 37,000  Level FlightAware
06:38AM 34.3550 30.5100 120° Southeast 526 605 37,000  Level FlightAware
06:39AM 34.3120 30.6000 120° Southeast 526 605 37,000  Level FlightAware
06:39AM 34.2690 30.6910 120° Southeast 526 605 37,000  Level FlightAware
06:40AM 34.2280 30.7750 121° Southeast 526 605 37,000  Level FlightAware
06:41AM 34.1820 30.8730 120° Southeast 527 606 37,000  Level FlightAware
06:41AM 34.1380 30.9650 120° Southeast 528 608 37,000  Level FlightAware
06:42AM 34.1010 31.0410 120° Southeast 529 609 37,000  Level FlightAware
06:43AM 34.0360 31.1780 120° Southeast 527 606 37,000  Level FlightAware
06:43AM 33.9930 31.2660 120° Southeast 526 605 37,000  Level FlightAware
06:44AM 33.9510 31.3540 120° Southeast 525 604 37,000  Level FlightAware
06:44AM 33.9070 31.4440 120° Southeast 523 602 37,000  Level FlightAware
06:45AM 33.8650 31.5320 120° Southeast 521 600 37,000  Level FlightAware
06:46AM 33.8140 31.6340 121° Southeast 519 597 37,000  Level FlightAware
06:46AM 33.7730 31.7200 120° Southeast 517 595 37,000  Level FlightAware
06:47AM 33.7290 31.8090 121° Southeast 516 594 37,000  Level FlightAware
06:47AM 33.6800 31.9080 121° Southeast 515 593 37,000  Level FlightAware
06:48AM 33.6440 31.9810 121° Southeast 514 592 37,000  Level FlightAware
06:49AM 33.6020 32.0680 120° Southeast 514 592 37,000  Level FlightAware
06:49AM 33.5540 32.1640 121° Southeast 512 589 37,000  Level FlightAware
06:50AM 33.5140 32.2450 121° Southeast 512 589 37,000  Level FlightAware
06:50AM 33.4720 32.3290 121° Southeast 512 589 37,000  Level FlightAware
06:51AM 33.4350 32.4030 121° Southeast 510 587 37,000  Level FlightAware
06:52AM 33.3780 32.5170 121° Southeast 513 590 37,000 -420 Level FlightAware
06:52AM 33.3410 32.5900 121° Southeast 510 587 36,500 -1,260 Descending FlightAware
06:53AM 33.2800 32.7120 121° Southeast 513 590 35,300 -1,680 Descending FlightAware
06:54AM 33.2330 32.8060 121° Southeast 525 604 34,200 -1,500 Descending FlightAware
06:54AM 33.1870 32.8950 122° Southeast 524 603 33,500 -1,680 Descending FlightAware
06:55AM 33.1470 32.9750 121° Southeast 520 598 32,300 -2,580 Descending FlightAware
06:55AM 33.0970 33.0720 122° Southeast 516 594 30,500 -2,400 Descending FlightAware
06:56AM 33.0510 33.1570 123° Southeast 505 581 29,400 -1,680 Descending FlightAware
06:57AM 33.0010 33.2400 126° Southeast 498 573 28,500 -1,260 Descending FlightAware
06:57AM 32.9550 33.3170 125° Southeast 489 563 27,900 -1,800 Descending FlightAware
06:58AM 32.8920 33.4240 125° Southeast 470 541 26,000 -2,400 Descending FlightAware
06:58AM 32.8530 33.4910 125° Southeast 461 531 24,700 -2,400 Descending FlightAware
06:59AM 32.8130 33.5590 125° Southeast 451 519 23,400 -2,340 Descending FlightAware
07:00AM 32.7700 33.6330 125° Southeast 441 507 22,000 -2,460 Descending FlightAware
07:00AM 32.7260 33.7070 125° Southeast 433 498 20,400 -2,520 Descending FlightAware
07:01AM 32.6880 33.7720 125° Southeast 424 488 19,100 -2,460 Descending FlightAware
07:01AM 32.6480 33.8400 125° Southeast 416 479 17,600 -2,520 Descending FlightAware
07:02AM 32.6120 33.9000 125° Southeast 410 472 16,300 -2,400 Descending FlightAware
07:03AM 32.5730 33.9650 125° Southeast 402 463 14,900 -2,340 Descending FlightAware
07:03AM 32.5390 34.0210 126° Southeast 395 455 13,700 -2,400 Descending FlightAware
07:04AM 32.4990 34.0890 125° Southeast 391 450 12,100 -2,400 Descending FlightAware
07:04AM 32.4640 34.1460 126° Southeast 385 443 10,900 -1,440 Descending FlightAware
07:05AM 32.4250 34.2100 126° Southeast 349 402 10,400 -660 Descending FlightAware
07:05AM 32.3980 34.2540 126° Southeast 325 374 10,200 -480 Descending FlightAware
07:06AM 32.3640 34.3080 127° Southeast 292 336 9,900 -900 Descending FlightAware
07:07AM 32.3380 34.3500 126° Southeast 289 333 9,100 -1,500 Descending FlightAware
07:07AM 32.3250 34.3720 125° Southeast 287 330 8,600 -1,680 Descending FlightAware
07:07AM 32.3090 34.3990 125° Southeast 284 327 8,000 -1,800 Descending FlightAware
07:08AM 32.2930 34.4250 126° Southeast 282 325 7,400 -1,440 Descending FlightAware
07:08AM 32.2710 34.4630 124° Southeast 265 305 6,800 -1,020 Descending FlightAware
07:08AM 32.2610 34.4840 119° Southeast 273 314 6,600 -900 Descending FlightAware
07:09AM 32.2430 34.5190 121° Southeast 323 372 6,100 -1,140 Descending FlightAware
07:09AM 32.2250 34.5560 120° Southeast 266 306 5,600 -1,200 Descending FlightAware
07:10AM 32.2170 34.5710 122° Southeast 263 303 5,400 -840 Descending FlightAware
07:10AM 32.2080 34.5890 121° Southeast 260 299 5,200 -480 Descending FlightAware
07:10AM 32.1900 34.6220 123° Southeast 260 299 5,100 -120 Descending FlightAware
07:11AM 32.1670 34.6610 125° Southeast 254 292 5,100  Level FlightAware
07:11AM 32.1540 34.6840 124° Southeast 237 273 5,100  Level FlightAware
07:12AM 32.1410 34.7070 124° Southeast 233 268 5,100  Level FlightAware
07:12AM 32.1230 34.7400 123° Southeast 230 265 5,100  Level FlightAware
07:12AM 32.1060 34.7620 132° Southeast 226 260 5,100 -600 Level FlightAware
07:13AM 32.0930 34.7770 136° Southeast 230 265 4,700 -840 Descending FlightAware
07:13AM 32.0800 34.7920 136° Southeast 216 249 4,600 -180 Descending FlightAware
07:13AM 32.0650 34.8080 138° Southeast 207 238 4,600 -240 Level FlightAware
07:14AM 32.0420 34.8320 139° Southeast 203 234 4,400 -780 Descending FlightAware
07:14AM 32.0260 34.8540 131° Southeast 193 222 3,900 -1,260 Descending FlightAware
07:14AM 32.0240 34.8620 106° East 189 217 3,700 -1,680 Descending FlightAware
07:15AM 32.0280 34.8910 81° East 185 213 2,900 -1,500 Descending FlightAware
07:15AM 32.0320 34.9100 76° East 186 214 2,500 -1,140 Descending FlightAware
07:16AM 32.0370 34.9270 71° East 184 212 2,200 -1,020 Descending FlightAware
07:16AM 32.0430 34.9360 52° Northeast 180 207 2,000 -1,020 Descending FlightAware
07:16AM 32.0460 34.9380 29° Northeast 180 207 1,900 -1,020 Descending FlightAware
07:16AM 32.0530 34.9400 14° North 177 204 1,800 -1,080 Descending FlightAware
07:16AM 32.0690 34.9350 345° North 168 193 1,400 -900 Descending FlightAware
07:17AM 32.0750 34.9210 297° West 162 186 1,200 -780 Descending FlightAware
07:17AM 32.0700 34.8940 258° West 153 176 800 -900 Descending FlightAware
07:18AM 32.0680 34.8800 260° West 153 176 500 -1,020 Descending FlightAware
07:18AM 32.0640 34.8560 259° West 115 132 -1,020 Descending FlightAware